Time;durP1;ratioP1;P1;durP2;ratioP2;P2;SDS_P1;SDS_P2;PMS_P1;PMS_P2;Temp;Humidity;BMP_temperature;BMP_pressure;BME280_temperature;BME280_humidity;BME280_pressure;Samples;Min_cycle;Max_cycle;Signal;HPM_P1;HPM_P2
2023/07/09 00:00:17;;;;;;;7.35;4.57;;;23.30;99.90;;;;;;6183132;23;19997;-75
2023/07/09 00:02:43;;;;;;;9.82;4.40;;;23.20;99.90;;;;;;6181603;23;20024;-75
2023/07/09 00:05:17;;;;;;;7.10;4.53;;;23.20;99.90;;;;;;6183089;23;20079;-75
2023/07/09 00:07:45;;;;;;;8.07;4.75;;;23.20;99.90;;;;;;6182419;23;20012;-76
2023/07/09 00:10:20;;;;;;;5.45;4.50;;;23.20;99.90;;;;;;6155632;23;20381;-75
2023/07/09 00:12:47;;;;;;;6.15;4.82;;;23.20;99.90;;;;;;6182268;23;20013;-75
2023/07/09 00:15:18;;;;;;;6.15;4.65;;;23.10;99.90;;;;;;6182882;23;20031;-75
2023/07/09 00:17:44;;;;;;;5.53;4.55;;;23.10;99.90;;;;;;6156057;23;20028;-75
2023/07/09 00:20:14;;;;;;;9.27;4.68;;;23.10;99.90;;;;;;6182748;23;20001;-75
2023/07/09 00:22:41;;;;;;;8.63;5.43;;;23.20;99.90;;;;;;6182690;23;20429;-75
2023/07/09 00:25:16;;;;;;;7.95;4.53;;;23.10;99.90;;;;;;6182712;23;20016;-75
2023/07/09 00:27:46;;;;;;;7.53;5.13;;;23.10;99.90;;;;;;6182210;23;20008;-75
2023/07/09 00:30:21;;;;;;;5.68;4.30;;;23.10;99.90;;;;;;6182602;23;20001;-75
2023/07/09 00:32:48;;;;;;;6.00;5.05;;;23.10;99.90;;;;;;6184809;23;20005;-76
2023/07/09 00:35:16;;;;;;;9.90;5.00;;;23.10;99.90;;;;;;6158174;23;20087;-75
2023/07/09 00:37:43;;;;;;;8.25;5.28;;;23.00;99.90;;;;;;6184728;23;19997;-75
2023/07/09 00:40:18;;;;;;;5.75;5.10;;;23.00;99.90;;;;;;6183664;23;20028;-75
2023/07/09 00:42:51;;;;;;;6.40;4.93;;;23.00;99.90;;;;;;6184912;23;20001;-75
2023/07/09 00:45:21;;;;;;;6.80;4.72;;;23.00;99.90;;;;;;6184874;23;20036;-75
2023/07/09 00:48:00;;;;;;;6.18;4.45;;;22.90;99.90;;;;;;6157307;23;20131;-75
2023/07/09 00:50:49;;;;;;;7.15;4.70;;;22.90;99.90;;;;;;6184851;23;20242;-75
2023/07/09 00:53:29;;;;;;;11.10;5.00;;;22.90;99.90;;;;;;6158297;23;20100;-75
2023/07/09 00:56:01;;;;;;;7.85;5.10;;;22.90;99.90;;;;;;6184836;23;20272;-75
2023/07/09 00:58:28;;;;;;;5.68;4.88;;;22.90;99.90;;;;;;6157687;23;20323;-76
2023/07/09 01:00:58;;;;;;;5.90;4.68;;;22.80;99.90;;;;;;6184667;23;20004;-76
2023/07/09 01:03:36;;;;;;;9.02;4.57;;;22.80;99.90;;;;;;6184669;23;20324;-76
2023/07/09 01:06:05;;;;;;;8.02;4.90;;;22.80;99.90;;;;;;6182541;23;20032;-75
2023/07/09 01:08:32;;;;;;;8.15;4.50;;;22.80;99.90;;;;;;6184703;23;20012;-75
2023/07/09 01:10:59;;;;;;;9.07;4.65;;;22.80;99.90;;;;;;6184440;23;20012;-75
2023/07/09 01:13:26;;;;;;;7.47;5.20;;;22.80;99.90;;;;;;6184266;23;20008;-75
2023/07/09 01:15:54;;;;;;;6.35;4.75;;;22.70;99.90;;;;;;6183682;23;20338;-75
2023/07/09 01:18:21;;;;;;;6.28;4.72;;;22.70;99.90;;;;;;6184457;23;20423;-76
2023/07/09 01:20:47;;;;;;;8.20;4.88;;;22.70;99.90;;;;;;6184517;23;20349;-75
2023/07/09 01:23:12;;;;;;;7.57;5.00;;;22.70;99.90;;;;;;6184617;23;20095;-75
2023/07/09 01:25:45;;;;;;;6.60;4.80;;;22.70;99.90;;;;;;6183553;23;20374;-75
2023/07/09 01:28:11;;;;;;;6.90;5.03;;;22.70;99.90;;;;;;6183551;23;20055;-75
2023/07/09 01:30:40;;;;;;;5.28;4.78;;;22.70;99.90;;;;;;6157958;23;20012;-75
2023/07/09 01:33:09;;;;;;;11.65;5.07;;;22.70;99.90;;;;;;6157783;23;20037;-75
2023/07/09 01:35:41;;;;;;;10.45;4.75;;;22.70;99.90;;;;;;6157716;23;20028;-75
2023/07/09 01:38:08;;;;;;;7.32;5.15;;;22.60;99.90;;;;;;6184405;23;19993;-75
2023/07/09 01:40:35;;;;;;;6.63;4.57;;;22.60;99.90;;;;;;6184414;23;19997;-75
2023/07/09 01:43:02;;;;;;;13.07;5.53;;;22.50;99.90;;;;;;6183883;23;20005;-75
2023/07/09 01:45:28;;;;;;;7.90;5.20;;;22.50;99.90;;;;;;6183181;23;20027;-75
2023/07/09 01:47:55;;;;;;;6.13;4.88;;;22.50;99.90;;;;;;6182752;23;20029;-75
2023/07/09 01:50:21;;;;;;;5.88;5.25;;;22.40;99.90;;;;;;6157529;23;20465;-75
2023/07/09 01:52:49;;;;;;;6.85;4.55;;;22.50;99.90;;;;;;6182812;23;20382;-75
2023/07/09 01:55:16;;;;;;;7.18;5.18;;;22.40;99.90;;;;;;6184286;23;20433;-75
2023/07/09 01:57:43;;;;;;;8.10;4.85;;;22.40;99.90;;;;;;6183924;23;19997;-75
2023/07/09 02:00:15;;;;;;;8.77;5.13;;;22.30;99.90;;;;;;6183897;23;20004;-75
2023/07/09 02:02:46;;;;;;;7.65;4.68;;;22.30;99.90;;;;;;6184159;23;20001;-76
2023/07/09 02:05:13;;;;;;;6.20;5.20;;;22.30;99.90;;;;;;6157785;23;20009;-75
2023/07/09 02:07:40;;;;;;;5.68;4.60;;;22.30;99.90;;;;;;6183467;23;20005;-75
2023/07/09 02:10:06;;;;;;;10.93;5.07;;;22.40;99.90;;;;;;6157620;23;20016;-75
2023/07/09 02:12:33;;;;;;;8.60;5.72;;;22.40;99.90;;;;;;6156119;23;20064;-75
2023/07/09 02:14:58;;;;;;;7.95;5.03;;;22.30;99.90;;;;;;6183628;23;20005;-75
2023/07/09 02:17:24;;;;;;;8.40;5.28;;;22.30;99.90;;;;;;6157571;23;20005;-75
2023/07/09 02:19:50;;;;;;;6.93;4.55;;;22.30;99.90;;;;;;6157531;23;20001;-75
2023/07/09 02:22:15;;;;;;;6.53;5.03;;;22.30;99.90;;;;;;6183463;23;20445;-75
2023/07/09 02:24:41;;;;;;;10.80;5.38;;;22.30;99.90;;;;;;6157610;23;20009;-75
2023/07/09 02:27:10;;;;;;;8.75;5.00;;;22.20;99.90;;;;;;6183645;23;20029;-76
2023/07/09 02:29:36;;;;;;;6.15;4.97;;;22.20;99.90;;;;;;6183807;23;20372;-76
2023/07/09 02:32:02;;;;;;;6.13;4.82;;;22.20;99.90;;;;;;6157530;23;20013;-75
2023/07/09 02:34:29;;;;;;;7.13;5.03;;;22.10;99.90;;;;;;6184011;23;20001;-75
2023/07/09 02:36:56;;;;;;;6.25;4.68;;;22.10;99.90;;;;;;6183519;23;20001;-75
2023/07/09 02:39:23;;;;;;;8.52;4.63;;;22.10;99.90;;;;;;6183844;23;20310;-75
2023/07/09 02:41:49;;;;;;;6.50;5.10;;;22.20;99.90;;;;;;6183614;23;20484;-75
2023/07/09 02:44:16;;;;;;;7.88;4.53;;;22.10;99.90;;;;;;6183604;23;20004;-75
2023/07/09 02:46:42;;;;;;;6.03;4.65;;;22.20;99.90;;;;;;6183415;23;20009;-75
2023/07/09 02:49:12;;;;;;;7.10;4.80;;;22.20;99.90;;;;;;6157331;23;20438;-75
2023/07/09 02:51:38;;;;;;;7.57;4.53;;;22.20;99.90;;;;;;6183140;23;19997;-75
2023/07/09 02:54:04;;;;;;;7.22;4.55;;;22.10;99.90;;;;;;6183311;23;20056;-75
2023/07/09 02:56:30;;;;;;;6.25;4.85;;;22.10;99.90;;;;;;6181608;23;20528;-75
2023/07/09 02:58:59;;;;;;;11.88;5.25;;;22.10;99.90;;;;;;6181385;23;20001;-75
2023/07/09 03:01:27;;;;;;;8.55;5.70;;;22.10;99.90;;;;;;6181929;23;19997;-75
2023/07/09 03:03:56;;;;;;;8.40;4.57;;;22.10;99.90;;;;;;6183175;23;20028;-75
2023/07/09 03:06:23;;;;;;;6.43;5.63;;;22.20;99.90;;;;;;6183425;23;20465;-75
2023/07/09 03:08:51;;;;;;;12.13;5.30;;;22.10;99.90;;;;;;6183621;23;20084;-75
2023/07/09 03:11:17;;;;;;;9.02;4.85;;;22.10;99.90;;;;;;6182749;23;20460;-76
2023/07/09 03:13:44;;;;;;;5.32;4.82;;;22.10;99.90;;;;;;6157142;23;20044;-75
2023/07/09 03:16:11;;;;;;;6.95;5.35;;;22.10;99.90;;;;;;6183472;23;20033;-75
2023/07/09 03:18:36;;;;;;;6.75;5.15;;;22.10;99.90;;;;;;6183493;23;20012;-75
2023/07/09 03:21:02;;;;;;;6.32;5.10;;;22.10;99.90;;;;;;6156550;23;20013;-75
2023/07/09 03:23:28;;;;;;;9.05;5.22;;;22.10;99.90;;;;;;6183343;23;20435;-76
2023/07/09 03:25:55;;;;;;;8.32;5.00;;;22.10;99.90;;;;;;6183341;23;20059;-75
2023/07/09 03:28:22;;;;;;;5.78;4.75;;;22.10;99.90;;;;;;6182948;23;20434;-75
2023/07/09 03:30:49;;;;;;;5.20;4.68;;;22.10;99.90;;;;;;6156946;23;20035;-75
2023/07/09 03:33:16;;;;;;;6.97;5.30;;;22.10;99.90;;;;;;6183357;23;20001;-76
2023/07/09 03:35:42;;;;;;;6.75;5.00;;;22.00;99.90;;;;;;6183437;23;20001;-75
2023/07/09 03:38:10;;;;;;;6.25;4.45;;;22.00;99.90;;;;;;6156199;23;20429;-75
2023/07/09 03:40:37;;;;;;;6.40;4.90;;;21.90;99.90;;;;;;6156710;23;20088;-75
2023/07/09 03:43:03;;;;;;;7.15;4.60;;;21.90;99.90;;;;;;6182671;23;20004;-75
2023/07/09 03:45:30;;;;;;;7.15;4.78;;;21.90;99.90;;;;;;6156975;23;20074;-75
2023/07/09 03:47:56;;;;;;;6.43;5.35;;;21.90;99.90;;;;;;6183411;23;20036;-75
2023/07/09 03:50:22;;;;;;;8.15;5.68;;;21.90;99.90;;;;;;6182801;23;20229;-76
2023/07/09 03:52:48;;;;;;;9.00;5.15;;;21.90;99.90;;;;;;6156894;23;20015;-75
2023/07/09 03:55:14;;;;;;;8.00;5.18;;;22.10;99.90;;;;;;6183437;23;20076;-75
2023/07/09 03:57:40;;;;;;;12.32;4.90;;;22.10;99.90;;;;;;6156730;23;20258;-76
2023/07/09 04:00:12;;;;;;;8.05;5.22;;;22.20;99.90;;;;;;6183444;23;20001;-75
2023/07/09 04:02:39;;;;;;;8.55;5.22;;;22.20;99.90;;;;;;6156849;23;20053;-75
2023/07/09 04:05:06;;;;;;;9.40;5.28;;;22.30;99.90;;;;;;6156877;23;20084;-75
2023/07/09 04:07:32;;;;;;;6.13;4.75;;;22.30;99.90;;;;;;6183390;23;20337;-75
2023/07/09 04:09:58;;;;;;;6.28;4.47;;;22.30;99.90;;;;;;6182893;23;20013;-75
2023/07/09 04:12:23;;;;;;;8.05;5.05;;;22.30;99.90;;;;;;6182909;23;20388;-75
2023/07/09 04:14:49;;;;;;;7.53;5.13;;;22.40;99.90;;;;;;6183355;23;20337;-75
2023/07/09 04:17:14;;;;;;;7.28;4.68;;;22.40;99.90;;;;;;6183316;23;20001;-75
2023/07/09 04:19:40;;;;;;;8.77;5.50;;;22.40;99.90;;;;;;6183170;23;20029;-75
2023/07/09 04:22:06;;;;;;;7.38;4.95;;;22.30;99.90;;;;;;6156836;23;20063;-75
2023/07/09 04:24:33;;;;;;;8.10;5.28;;;22.40;99.90;;;;;;6183324;23;20040;-75
2023/07/09 04:27:02;;;;;;;6.85;4.80;;;22.40;99.90;;;;;;6156548;23;20055;-75
2023/07/09 04:29:29;;;;;;;10.18;4.78;;;22.50;99.90;;;;;;6183219;23;20392;-75
2023/07/09 04:31:55;;;;;;;5.15;4.30;;;22.50;99.90;;;;;;6183031;23;20349;-75
2023/07/09 04:34:21;;;;;;;8.25;5.18;;;22.60;99.90;;;;;;6183027;23;20008;-75
2023/07/09 04:36:46;;;;;;;8.27;5.15;;;22.60;99.90;;;;;;6156768;23;20016;-75
2023/07/09 04:39:12;;;;;;;7.22;5.53;;;22.70;99.90;;;;;;6183235;23;20002;-75
2023/07/09 04:41:41;;;;;;;6.95;4.60;;;22.70;99.90;;;;;;6156491;23;20001;-75
2023/07/09 04:44:06;;;;;;;12.45;5.53;;;22.80;99.90;;;;;;6183239;23;20005;-75
2023/07/09 04:46:32;;;;;;;8.48;5.63;;;22.80;99.90;;;;;;6156730;23;20318;-75
2023/07/09 04:49:00;;;;;;;7.47;4.57;;;22.80;99.90;;;;;;6157211;23;20005;-75
2023/07/09 04:51:26;;;;;;;5.93;5.00;;;22.90;99.90;;;;;;6184880;23;20004;-75
2023/07/09 04:53:51;;;;;;;8.60;5.88;;;23.00;99.90;;;;;;6184836;23;20005;-75
2023/07/09 04:56:18;;;;;;;8.70;5.10;;;23.10;99.90;;;;;;6184689;23;20005;-75
2023/07/09 04:58:43;;;;;;;7.40;4.78;;;23.10;99.90;;;;;;6184845;23;20489;-76
2023/07/09 05:01:09;;;;;;;10.32;5.35;;;23.20;99.90;;;;;;6158325;23;20036;-75
2023/07/09 05:03:35;;;;;;;6.88;4.90;;;23.20;99.90;;;;;;6184647;23;20001;-75
2023/07/09 05:06:00;;;;;;;6.75;4.95;;;23.30;99.90;;;;;;6184667;23;20047;-75
2023/07/09 05:08:26;;;;;;;6.05;4.97;;;23.30;99.90;;;;;;6184659;23;20350;-75
2023/07/09 05:10:52;;;;;;;8.43;4.90;;;23.30;99.90;;;;;;6184309;23;20013;-75
2023/07/09 05:13:19;;;;;;;8.65;5.75;;;23.30;99.90;;;;;;6158047;23;20009;-75
2023/07/09 05:15:46;;;;;;;5.97;5.20;;;23.40;99.90;;;;;;6184757;23;20001;-75
2023/07/09 05:18:14;;;;;;;6.07;4.78;;;23.40;99.90;;;;;;6184673;23;20068;-75
2023/07/09 05:20:41;;;;;;;8.55;5.30;;;23.40;99.90;;;;;;6158323;23;20088;-75
2023/07/09 05:23:08;;;;;;;6.25;4.68;;;23.50;99.90;;;;;;6184601;23;20011;-75
2023/07/09 05:25:34;;;;;;;6.90;5.50;;;23.50;99.90;;;;;;6184686;23;20059;-75
2023/07/09 05:27:59;;;;;;;7.63;5.20;;;23.50;99.90;;;;;;6184321;23;20009;-75
2023/07/09 05:30:26;;;;;;;6.78;5.38;;;23.50;99.90;;;;;;6184340;23;20005;-75
2023/07/09 05:32:53;;;;;;;5.47;4.57;;;23.60;99.90;;;;;;6184580;23;20452;-75
2023/07/09 05:35:19;;;;;;;6.38;4.65;;;23.60;99.90;;;;;;6184419;23;20001;-75
2023/07/09 05:37:45;;;;;;;9.48;4.90;;;23.70;99.90;;;;;;6184528;23;20080;-75
2023/07/09 05:40:10;;;;;;;8.98;5.40;;;23.70;99.90;;;;;;6184028;23;20002;-75
2023/07/09 05:42:36;;;;;;;7.53;5.10;;;23.70;99.90;;;;;;6184154;23;20005;-75
2023/07/09 05:45:02;;;;;;;5.57;5.00;;;23.80;99.90;;;;;;6184325;23;20011;-76
2023/07/09 05:47:28;;;;;;;8.48;4.93;;;23.80;99.90;;;;;;6184414;23;20038;-75
2023/07/09 05:49:54;;;;;;;7.05;4.88;;;23.80;99.90;;;;;;6184446;23;20065;-75
2023/07/09 05:52:22;;;;;;;6.80;5.03;;;23.80;99.90;;;;;;6184180;23;20001;-75
2023/07/09 05:54:52;;;;;;;7.28;4.97;;;23.80;99.90;;;;;;6184513;23;20036;-75
2023/07/09 05:57:18;;;;;;;8.15;5.03;;;23.90;99.90;;;;;;6184243;23;20451;-75
2023/07/09 05:59:44;;;;;;;8.32;4.95;;;23.90;99.90;;;;;;6184088;23;20079;-75
2023/07/09 06:02:11;;;;;;;7.78;5.55;;;24.00;99.90;;;;;;6183940;23;20306;-75
2023/07/09 06:04:37;;;;;;;6.93;4.65;;;24.00;99.90;;;;;;6157826;23;20017;-75
2023/07/09 06:07:03;;;;;;;7.18;5.20;;;24.10;99.90;;;;;;6184155;23;20505;-75
2023/07/09 06:09:30;;;;;;;7.25;5.35;;;24.10;99.90;;;;;;6183988;23;20008;-75
2023/07/09 06:11:55;;;;;;;7.07;4.55;;;24.20;99.90;;;;;;6184393;23;20020;-75
2023/07/09 06:14:21;;;;;;;7.30;4.45;;;24.20;99.90;;;;;;6158576;23;20088;-75
2023/07/09 06:16:47;;;;;;;5.15;4.57;;;24.20;99.90;;;;;;6185348;23;20516;-75
2023/07/09 06:19:13;;;;;;;8.18;5.25;;;24.20;99.90;;;;;;6185077;23;20007;-75
2023/07/09 06:21:40;;;;;;;9.77;5.70;;;24.40;99.90;;;;;;6157986;23;20040;-75
2023/07/09 06:24:07;;;;;;;7.57;5.03;;;24.40;99.90;;;;;;6185344;23;20429;-75
2023/07/09 06:26:33;;;;;;;5.35;4.85;;;24.40;99.90;;;;;;6184297;23;20333;-75
2023/07/09 06:28:58;;;;;;;8.80;4.95;;;24.40;99.90;;;;;;6157953;23;20024;-75
2023/07/09 06:31:24;;;;;;;8.30;5.63;;;24.50;99.90;;;;;;6185062;23;20009;-75
2023/07/09 06:33:50;;;;;;;8.32;4.80;;;24.60;99.90;;;;;;6185252;23;20001;-75
2023/07/09 06:36:18;;;;;;;7.60;4.97;;;24.70;99.90;;;;;;6158264;23;20032;-75
2023/07/09 06:38:44;;;;;;;5.00;4.45;;;24.70;99.90;;;;;;6185263;23;20058;-75
2023/07/09 06:41:10;;;;;;;4.63;4.18;;;24.80;99.90;;;;;;6184919;23;19997;-75
2023/07/09 06:43:38;;;;;;;5.25;4.68;;;24.80;99.90;;;;;;6184853;23;20005;-75
2023/07/09 06:46:05;;;;;;;4.60;3.67;;;24.90;99.90;;;;;;6158721;23;20059;-75
2023/07/09 06:48:30;;;;;;;5.03;4.35;;;24.90;99.90;;;;;;6185074;23;19997;-75
2023/07/09 06:50:58;;;;;;;6.45;4.63;;;24.90;99.90;;;;;;6158301;23;20020;-75
2023/07/09 06:53:24;;;;;;;8.18;4.25;;;24.90;99.90;;;;;;6184778;23;20069;-75
2023/07/09 06:55:50;;;;;;;3.97;3.58;;;25.00;99.90;;;;;;6184870;23;20001;-75
2023/07/09 06:58:17;;;;;;;4.63;4.22;;;25.00;99.90;;;;;;6158725;23;20031;-75
2023/07/09 07:00:43;;;;;;;5.55;4.32;;;25.00;99.90;;;;;;6185091;23;20055;-75
2023/07/09 07:03:09;;;;;;;9.93;4.78;;;25.00;99.90;;;;;;6185107;23;20087;-75
2023/07/09 07:05:35;;;;;;;7.03;3.92;;;25.00;99.90;;;;;;6184993;23;20004;-75
2023/07/09 07:08:02;;;;;;;4.70;3.95;;;25.00;99.90;;;;;;6158623;23;20009;-75
2023/07/09 07:10:29;;;;;;;6.15;4.20;;;25.00;99.90;;;;;;6183660;23;20009;-75
2023/07/09 07:12:55;;;;;;;4.97;4.00;;;25.10;99.90;;;;;;6157352;23;20035;-75
2023/07/09 07:15:21;;;;;;;4.38;3.80;;;25.10;99.90;;;;;;6184115;23;20004;-74
2023/07/09 07:17:47;;;;;;;5.22;4.30;;;25.20;99.90;;;;;;6158213;23;20451;-75
2023/07/09 07:20:15;;;;;;;8.25;4.25;;;25.20;99.90;;;;;;6184057;23;20055;-75
2023/07/09 07:22:44;;;;;;;13.35;4.20;;;25.20;99.90;;;;;;6184752;23;20005;-75
2023/07/09 07:25:10;;;;;;;7.57;4.32;;;25.20;99.90;;;;;;6184438;23;20005;-75
2023/07/09 07:27:37;;;;;;;8.88;5.03;;;25.30;99.90;;;;;;6183817;23;20001;-75
2023/07/09 07:30:03;;;;;;;10.38;4.50;;;25.30;99.90;;;;;;6183840;23;20004;-75
2023/07/09 07:32:29;;;;;;;7.40;4.32;;;25.40;99.90;;;;;;6157291;23;20005;-75
2023/07/09 07:34:55;;;;;;;6.30;4.85;;;25.40;99.90;;;;;;6184063;23;20005;-75
2023/07/09 07:37:21;;;;;;;5.45;4.95;;;25.40;99.90;;;;;;6157342;23;20012;-75
2023/07/09 07:39:50;;;;;;;4.93;4.40;;;25.40;99.90;;;;;;6157379;23;20088;-75
2023/07/09 07:42:17;;;;;;;7.00;4.22;;;25.50;99.90;;;;;;6183460;23;20001;-75
2023/07/09 07:44:42;;;;;;;6.20;4.10;;;25.50;99.90;;;;;;6183521;23;20013;-75
2023/07/09 07:47:14;;;;;;;7.03;4.50;;;25.60;99.90;;;;;;6157282;23;20008;-75
2023/07/09 07:49:40;;;;;;;;;;;25.60;99.90;;;;;;6184116;23;20005;-75
2023/07/09 07:52:06;;;;;;;5.18;4.50;;;25.60;99.90;;;;;;6183386;23;19975;-75
2023/07/09 07:54:32;;;;;;;7.22;4.70;;;25.60;99.90;;;;;;6183637;23;20005;-75
2023/07/09 07:56:58;;;;;;;4.50;4.10;;;25.70;99.90;;;;;;6157162;23;20005;-75
2023/07/09 07:59:24;;;;;;;5.97;4.15;;;25.70;99.90;;;;;;6183556;23;19996;-74
2023/07/09 08:01:50;;;;;;;7.85;4.60;;;25.80;99.90;;;;;;6183450;23;20012;-74
2023/07/09 08:04:16;;;;;;;4.85;4.20;;;25.80;99.90;;;;;;6183447;23;20040;-75
2023/07/09 08:06:41;;;;;;;8.23;5.95;;;25.90;99.90;;;;;;6183558;23;20024;-75
2023/07/09 08:09:07;;;;;;;8.40;5.28;;;26.00;99.90;;;;;;6183487;23;19998;-75
2023/07/09 08:11:36;;;;;;;6.55;4.60;;;26.10;99.90;;;;;;6183092;23;20009;-73
2023/07/09 08:14:02;;;;;;;8.27;5.30;;;26.20;99.90;;;;;;6157091;23;20013;-73
2023/07/09 08:16:27;;;;;;;12.70;4.88;;;26.20;99.90;;;;;;6183544;23;20028;-73
2023/07/09 08:18:54;;;;;;;6.53;4.78;;;26.20;99.90;;;;;;6183379;23;20004;-73
2023/07/09 08:21:20;;;;;;;8.50;5.38;;;26.20;99.90;;;;;;6183270;23;20001;-73
2023/07/09 08:23:46;;;;;;;7.15;5.40;;;26.30;99.90;;;;;;6157562;23;20318;-73
2023/07/09 08:26:11;;;;;;;8.57;4.85;;;26.30;99.90;;;;;;6185276;23;20059;-72
2023/07/09 08:28:37;;;;;;;5.57;4.90;;;26.30;99.90;;;;;;6185249;23;20009;-73
2023/07/09 08:31:03;;;;;;;10.32;5.72;;;26.40;99.90;;;;;;6185161;23;20032;-73
2023/07/09 08:33:30;;;;;;;8.57;5.43;;;26.40;99.90;;;;;;6185092;23;19997;-73
2023/07/09 08:35:56;;;;;;;11.52;5.25;;;26.40;99.90;;;;;;6185077;23;20353;-73
2023/07/09 08:38:22;;;;;;;8.38;5.90;;;26.40;99.90;;;;;;6158848;23;20534;-73
2023/07/09 08:41:06;;;;;;;7.65;5.18;;;26.60;99.90;;;;;;6158691;23;20024;-73
2023/07/09 08:43:52;;;;;;;6.38;4.80;;;26.70;99.90;;;;;;6185035;23;20005;-73
2023/07/09 08:58:32;;;;;;;12.18;5.53;;;26.90;99.90;;;;;;5115655;27;20458;-74
2023/07/09 09:01:18;;;;;;;8.27;5.85;;;27.30;99.90;;;;;;5114672;28;20386;-74
2023/07/09 09:04:00;;;;;;;8.85;5.95;;;27.20;99.90;;;;;;5098222;28;20077;-75
2023/07/09 09:06:28;;;;;;;5.32;4.82;;;27.20;99.90;;;;;;5112001;28;20106;-74
2023/07/09 09:09:08;;;;;;;6.82;5.13;;;27.20;99.90;;;;;;5114742;28;20030;-74
2023/07/09 09:11:48;;;;;;;9.73;5.90;;;27.20;99.90;;;;;;5116042;28;20102;-74
2023/07/09 09:14:26;;;;;;;6.55;5.32;;;27.30;99.90;;;;;;5098375;28;20429;-74
2023/07/09 09:16:53;;;;;;;8.13;5.30;;;27.30;99.90;;;;;;5115297;28;20036;-75
2023/07/09 09:19:37;;;;;;;9.50;5.43;;;27.40;99.90;;;;;;5119547;27;20049;-74
2023/07/09 09:22:18;;;;;;;6.60;5.60;;;27.40;99.90;;;;;;5106879;28;20031;-74
2023/07/09 09:25:02;;;;;;;7.60;5.63;;;27.30;99.90;;;;;;5119619;27;20076;-74
2023/07/09 09:27:27;;;;;;;9.00;5.97;;;27.40;99.90;;;;;;5113909;27;20110;-75
2023/07/09 09:29:53;;;;;;;10.07;5.32;;;27.40;99.90;;;;;;5115510;28;20297;-75
2023/07/09 09:32:42;;;;;;;8.40;5.82;;;27.50;99.90;;;;;;5113388;28;20157;-74
2023/07/09 09:35:13;;;;;;;11.07;5.88;;;27.50;99.90;;;;;;5115276;28;20027;-74
2023/07/09 09:37:39;;;;;;;11.02;5.65;;;27.50;99.90;;;;;;5114944;28;20016;-74
2023/07/09 09:40:08;;;;;;;13.95;5.82;;;27.60;99.90;;;;;;5115743;28;20029;-74
2023/07/09 09:42:34;;;;;;;5.57;5.07;;;27.60;99.90;;;;;;5115598;28;20019;-74
2023/07/09 09:45:01;;;;;;;13.65;6.30;;;27.70;99.90;;;;;;5116103;28;20038;-74
2023/07/09 09:47:30;;;;;;;10.63;5.82;;;27.70;99.90;;;;;;5112912;28;20034;-74
2023/07/09 09:49:55;;;;;;;10.13;5.55;;;27.80;99.90;;;;;;5112128;28;20020;-74
2023/07/09 09:52:30;;;;;;;9.85;6.15;;;27.80;99.90;;;;;;5107513;28;20382;-74
2023/07/09 09:55:03;;;;;;;9.80;5.97;;;27.90;99.90;;;;;;5114754;28;20486;-74
2023/07/09 09:57:29;;;;;;;8.70;5.97;;;28.00;99.90;;;;;;5111313;28;20091;-74
2023/07/09 09:59:55;;;;;;;5.88;5.25;;;28.00;99.90;;;;;;5098762;28;20044;-74
2023/07/09 10:02:24;;;;;;;9.45;5.18;;;28.10;99.90;;;;;;5101491;28;20103;-74
2023/07/09 10:04:51;;;;;;;9.93;6.40;;;28.10;99.90;;;;;;5082882;28;20028;-74
2023/07/09 10:07:27;;;;;;;8.73;6.10;;;28.10;99.90;;;;;;5100848;28;20429;-74
2023/07/09 10:09:54;;;;;;;6.78;5.80;;;28.10;99.90;;;;;;5100588;28;20020;-74
2023/07/09 10:12:48;;;;;;;8.43;6.22;;;28.20;99.90;;;;;;5085542;28;20385;-74
2023/07/09 10:15:42;;;;;;;9.85;5.53;;;28.40;99.90;;;;;;5038056;28;20017;-74
2023/07/09 10:18:29;;;;;;;8.15;5.68;;;28.40;99.90;;;;;;5097828;28;20028;-74
2023/07/09 10:21:09;;;;;;;7.35;6.07;;;28.50;99.90;;;;;;5100268;28;20024;-74
2023/07/09 10:23:38;;;;;;;8.63;5.68;;;28.50;99.90;;;;;;5099103;28;20024;-74
2023/07/09 10:26:13;;;;;;;7.63;5.45;;;28.50;99.90;;;;;;5102367;28;20024;-75
2023/07/09 10:28:59;;;;;;;7.15;5.55;;;28.60;99.90;;;;;;5101639;28;20064;-74
2023/07/09 10:31:45;;;;;;;8.48;5.80;;;28.70;99.90;;;;;;5097434;28;20062;-74
2023/07/09 10:34:17;;;;;;;7.00;5.70;;;28.80;99.90;;;;;;5099618;28;20039;-74
2023/07/09 10:37:01;;;;;;;11.32;5.72;;;28.80;99.90;;;;;;5102739;28;20027;-74
2023/07/09 10:39:38;;;;;;;8.13;5.22;;;28.90;99.90;;;;;;5101423;28;20494;-74
2023/07/09 10:42:10;;;;;;;9.20;6.03;;;28.90;99.90;;;;;;5105966;28;20028;-75
2023/07/09 10:44:40;;;;;;;7.00;5.95;;;29.00;99.90;;;;;;5081052;28;20024;-74
2023/07/09 10:47:17;;;;;;;8.43;5.85;;;29.20;99.90;;;;;;5103857;28;20198;-74
2023/07/09 10:49:44;;;;;;;8.15;6.28;;;29.40;99.90;;;;;;5103714;28;20454;-74
2023/07/09 10:52:36;;;;;;;11.18;6.05;;;29.50;99.90;;;;;;5101572;28;20027;-74
2023/07/09 10:55:05;;;;;;;9.52;5.88;;;29.50;99.90;;;;;;5101425;28;20020;-74
2023/07/09 10:57:52;;;;;;;9.00;6.22;;;29.70;99.90;;;;;;5086177;28;20520;-74
2023/07/09 11:00:21;;;;;;;12.82;6.82;;;29.80;99.90;;;;;;5101207;28;20024;-74
2023/07/09 11:02:58;;;;;;;8.45;5.82;;;29.90;99.90;;;;;;5097662;28;20027;-74
2023/07/09 11:05:23;;;;;;;6.20;5.60;;;30.00;99.90;;;;;;5083443;28;20119;-74
2023/07/09 11:07:58;;;;;;;8.18;5.63;;;30.10;99.90;;;;;;5084238;28;20135;-74
2023/07/09 11:10:46;;;;;;;6.05;5.35;;;30.20;99.90;;;;;;5104098;28;20027;-74
2023/07/09 11:13:37;;;;;;;6.72;6.00;;;30.20;99.90;;;;;;5086137;28;20016;-74
2023/07/09 11:16:05;;;;;;;15.00;6.38;;;30.30;99.90;;;;;;5103396;28;20034;-74
2023/07/09 11:18:33;;;;;;;8.60;6.00;;;30.20;99.90;;;;;;5100907;28;20111;-74
2023/07/09 11:21:16;;;;;;;10.07;6.03;;;30.10;99.90;;;;;;5097531;28;20020;-74
2023/07/09 11:23:51;;;;;;;7.57;5.93;;;30.30;99.90;;;;;;5102163;28;20031;-74
2023/07/09 11:26:33;;;;;;;8.98;5.97;;;30.40;99.90;;;;;;5097880;28;20028;-74
2023/07/09 11:29:01;;;;;;;10.35;5.93;;;30.60;99.90;;;;;;5101793;28;20020;-74
2023/07/09 11:31:38;;;;;;;7.70;5.97;;;30.60;99.90;;;;;;5104367;28;20037;-74
2023/07/09 11:34:12;;;;;;;11.48;6.82;;;30.50;99.90;;;;;;5099167;28;20036;-74
2023/07/09 11:36:58;;;;;;;12.43;6.15;;;30.60;99.90;;;;;;5083584;28;20042;-74
2023/07/09 11:39:30;;;;;;;6.68;5.82;;;30.70;99.20;;;;;;5099375;28;20024;-75
2023/07/09 11:41:56;;;;;;;9.73;5.95;;;30.70;99.70;;;;;;5083295;28;20031;-75
2023/07/09 11:44:33;;;;;;;7.88;5.80;;;30.80;98.90;;;;;;5085517;28;20394;-74
2023/07/09 11:47:15;;;;;;;8.85;6.07;;;30.90;99.90;;;;;;5097243;28;20032;-74
2023/07/09 11:50:16;;;;;;;10.82;6.13;;;30.90;99.00;;;;;;5098143;28;20482;-75
2023/07/09 11:53:05;;;;;;;7.23;5.67;;;31.10;99.90;;;;;;5095182;28;20028;-75
2023/07/09 11:55:41;;;;;;;6.97;5.82;;;31.20;99.90;;;;;;5093113;28;20061;-74
2023/07/09 11:58:15;;;;;;;7.45;5.82;;;31.40;99.90;;;;;;5095859;28;20054;-74
2023/07/09 12:00:43;;;;;;;8.38;5.32;;;31.40;98.10;;;;;;5090164;28;20103;-74
2023/07/09 12:03:19;;;;;;;9.65;5.55;;;31.50;97.90;;;;;;5104063;28;20028;-74
2023/07/09 12:05:52;;;;;;;6.68;5.38;;;31.70;97.90;;;;;;5098941;28;20020;-74
2023/07/09 12:08:21;;;;;;;8.07;5.57;;;31.70;96.90;;;;;;5101347;28;20414;-74
2023/07/09 12:10:47;;;;;;;7.32;5.22;;;31.80;96.90;;;;;;5103533;28;20045;-74
2023/07/09 12:13:14;;;;;;;8.57;5.10;;;32.00;96.30;;;;;;5100325;28;20417;-74
2023/07/09 12:15:40;;;;;;;9.05;6.05;;;32.00;95.10;;;;;;5096003;28;20027;-74
2023/07/09 12:18:13;;;;;;;11.43;5.75;;;32.00;94.60;;;;;;5098869;28;20035;-74
2023/07/09 12:20:41;;;;;;;7.57;5.15;;;32.10;95.00;;;;;;5098152;28;20021;-74
2023/07/09 12:23:32;;;;;;;8.90;6.15;;;32.30;95.00;;;;;;5100331;28;20081;-74
2023/07/09 12:26:02;;;;;;;9.98;5.40;;;32.40;95.30;;;;;;5093902;28;20067;-75
2023/07/09 12:28:29;;;;;;;8.60;6.17;;;32.50;94.60;;;;;;5100553;28;20024;-74
2023/07/09 12:30:55;;;;;;;8.88;5.80;;;32.60;94.90;;;;;;5102174;28;20249;-74
2023/07/09 12:33:24;;;;;;;11.90;5.30;;;32.50;93.40;;;;;;5098462;28;20024;-74
2023/07/09 12:35:59;;;;;;;9.88;5.38;;;32.60;93.60;;;;;;5094875;28;20475;-74
2023/07/09 12:38:29;;;;;;;11.07;4.75;;;32.70;93.90;;;;;;5100249;28;20030;-74
2023/07/09 12:40:55;;;;;;;5.55;5.07;;;32.80;93.90;;;;;;5101001;28;20032;-74
2023/07/09 12:43:27;;;;;;;12.15;5.80;;;32.90;93.40;;;;;;5098256;28;20482;-74
2023/07/09 12:45:54;;;;;;;6.05;4.85;;;33.00;92.50;;;;;;5094681;28;20035;-74
2023/07/09 12:48:27;;;;;;;6.28;4.45;;;33.00;92.20;;;;;;5102140;28;20016;-74
2023/07/09 12:50:57;;;;;;;5.63;5.13;;;33.10;93.40;;;;;;5101604;28;20069;-74
2023/07/09 12:53:28;;;;;;;6.00;5.50;;;33.20;93.70;;;;;;5102263;28;20016;-74
2023/07/09 12:55:59;;;;;;;5.32;4.82;;;33.30;91.90;;;;;;5093449;28;20028;-74
2023/07/09 12:58:36;;;;;;;7.43;4.97;;;33.30;92.00;;;;;;5091213;28;20123;-74
2023/07/09 13:01:16;;;;;;;5.68;4.70;;;33.30;89.10;;;;;;5081181;28;20023;-75
2023/07/09 13:03:54;;;;;;;6.43;4.93;;;33.50;91.30;;;;;;5093045;28;20016;-74
2023/07/09 13:06:34;;;;;;;9.00;5.50;;;33.50;91.40;;;;;;5100212;28;20023;-74
2023/07/09 13:09:00;;;;;;;7.88;5.07;;;33.60;90.70;;;;;;5093930;28;20025;-74